F/V Mab Fanch — FPDH — position and weather

sailwx.info

Track history (hours):
 
Tides and Currents Weather Stations Pressure Air Temp Water Temp Dewpoint Dewpoint Depression Visibility Wind Speed Wind Dir Waves Ship Positions

F/V Mab Fanch

Last reported at 2018-Jun-21 14:38 UTC. Time now 2018-Jun-22 07:47 UTC.
Position N 47°45' W 004°20'.

Length 15 m.

Type: Fishing. MMSI: 228219000.

Date/timePositionNaut miles runAvg speedWind from/ knotsBaromVisibWave heightAir tempDewpointWater temp
2018-Jun-21 14:38N 47°45' W 004°20'2 0.2
2018-Jun-21 03:43N 47°43' W 004°22'1 3.6
2018-Jun-21 03:20N 47°44' W 004°21'11 0.6
2018-Jun-20 07:59N 47°42' W 004°37'4 1.7
2018-Jun-20 05:28N 47°42' W 004°30'5 3.2
2018-Jun-20 04:01N 47°42' W 004°23'1 3.3
2018-Jun-20 03:37N 47°43' W 004°22'2 5.1
2018-Jun-20 03:09N 47°45' W 004°20'1 7.3
2018-Jun-20 02:57N 47°46' W 004°19'6 0.4
2018-Jun-19 13:57N 47°40' W 004°20'2 2.8
2018-Jun-19 13:22N 47°39' W 004°19'2 3.5
2018-Jun-19 12:42N 47°37' W 004°18'1 2.9
2018-Jun-19 12:26N 47°37' W 004°19'4 3.2
2018-Jun-19 11:20N 47°39' W 004°24'3 3.0
2018-Jun-19 10:23N 47°40' W 004°28'1 3.5
2018-Jun-19 10:00N 47°40' W 004°30'2 3.6
2018-Jun-19 09:26N 47°40' W 004°33'5 2.0
2018-Jun-19 07:05N 47°42' W 004°39'0 0.0
2018-Jun-18 07:34N 47°42' W 004°38'2 2.4
2018-Jun-18 06:47N 47°40' W 004°39'  
2018-Jun-12 03:43N 47°42' W 004°23'1 4.5
2018-Jun-12 03:28N 47°43' W 004°21'  
Track history (hours):
 
Tides and Currents Weather Stations Pressure Air Temp Water Temp Dewpoint Dewpoint Depression Visibility Wind Speed Wind Dir Waves Ship Positions

F/V Mab Fanch

Last reported at 2018-Jun-21 14:38 UTC. Time now 2018-Jun-22 07:47 UTC.
Position N 47°45' W 004°20'.

Length 15 m.

Type: Fishing. MMSI: 228219000.

Date/timePositionNaut miles runAvg speedWind from/ knotsBaromVisibWave heightAir tempDewpointWater temp
2018-Jun-21 14:38N 47°45' W 004°20'2 0.2
2018-Jun-21 03:43N 47°43' W 004°22'1 3.6
2018-Jun-21 03:20N 47°44' W 004°21'11 0.6
2018-Jun-20 07:59N 47°42' W 004°37'4 1.7
2018-Jun-20 05:28N 47°42' W 004°30'5 3.2
2018-Jun-20 04:01N 47°42' W 004°23'1 3.3
2018-Jun-20 03:37N 47°43' W 004°22'2 5.1
2018-Jun-20 03:09N 47°45' W 004°20'1 7.3
2018-Jun-20 02:57N 47°46' W 004°19'6 0.4
2018-Jun-19 13:57N 47°40' W 004°20'2 2.8
2018-Jun-19 13:22N 47°39' W 004°19'2 3.5
2018-Jun-19 12:42N 47°37' W 004°18'1 2.9
2018-Jun-19 12:26N 47°37' W 004°19'4 3.2
2018-Jun-19 11:20N 47°39' W 004°24'3 3.0
2018-Jun-19 10:23N 47°40' W 004°28'1 3.5
2018-Jun-19 10:00N 47°40' W 004°30'2 3.6
2018-Jun-19 09:26N 47°40' W 004°33'5 2.0
2018-Jun-19 07:05N 47°42' W 004°39'0 0.0
2018-Jun-18 07:34N 47°42' W 004°38'2 2.4
2018-Jun-18 06:47N 47°40' W 004°39'  
2018-Jun-12 03:43N 47°42' W 004°23'1 4.5
2018-Jun-12 03:28N 47°43' W 004°21'  

Dump ship's entire track history